createdAt,value
2019-03-23T00:02:11.298Z,3.10
2019-03-23T00:04:43.079Z,3.10
2019-03-23T00:07:14.794Z,3.10
2019-03-23T00:09:46.580Z,3.20
2019-03-23T00:12:18.413Z,3.20
2019-03-23T00:14:50.163Z,3.20
2019-03-23T00:17:22.015Z,3.20
2019-03-23T00:19:53.736Z,3.10
2019-03-23T00:22:26.936Z,3.10
2019-03-23T00:24:58.691Z,3.10
2019-03-23T00:27:30.179Z,3.00
2019-03-23T00:30:01.850Z,2.90
2019-03-23T00:32:34.609Z,2.90
2019-03-23T00:35:06.938Z,2.80
2019-03-23T00:37:39.480Z,2.80
2019-03-23T00:40:11.289Z,2.80
2019-03-23T00:42:42.800Z,2.80
2019-03-23T00:45:14.743Z,2.70
2019-03-23T00:47:46.260Z,2.70
2019-03-23T00:50:18.151Z,2.70
2019-03-23T00:52:49.592Z,2.70
2019-03-23T00:55:21.263Z,2.60
2019-03-23T00:57:53.035Z,2.70
2019-03-23T01:00:24.704Z,2.60
2019-03-23T01:02:56.287Z,2.70
2019-03-23T01:05:28.137Z,2.70
2019-03-23T01:07:59.594Z,2.70
2019-03-23T01:10:31.141Z,2.80
2019-03-23T01:13:02.634Z,2.80
2019-03-23T01:15:34.188Z,2.90
2019-03-23T01:18:05.952Z,3.00
2019-03-23T01:20:37.536Z,3.00
2019-03-23T01:23:09.068Z,3.10
2019-03-23T01:25:40.710Z,3.20
2019-03-23T01:28:12.782Z,3.20
2019-03-23T01:30:44.708Z,3.30
2019-03-23T01:33:16.288Z,3.40
2019-03-23T01:35:48.124Z,3.40
2019-03-23T01:38:19.818Z,3.40
2019-03-23T01:40:51.493Z,3.50
2019-03-23T01:43:23.039Z,3.50
2019-03-23T01:45:54.683Z,3.50
2019-03-23T01:48:26.426Z,3.40
2019-03-23T01:50:58.038Z,3.40
2019-03-23T01:53:29.657Z,3.40
2019-03-23T01:56:01.306Z,3.50
2019-03-23T01:58:33.047Z,3.50
2019-03-23T02:01:05.043Z,3.50
2019-03-23T02:03:37.861Z,3.60
2019-03-23T02:06:09.410Z,3.70
2019-03-23T02:08:40.972Z,3.80
2019-03-23T02:11:15.429Z,3.90
2019-03-23T02:13:47.130Z,4.00
2019-03-23T02:16:19.025Z,4.10
2019-03-23T02:18:51.704Z,4.20
2019-03-23T02:21:23.583Z,4.30
2019-03-23T02:23:55.036Z,4.50
2019-03-23T02:26:26.803Z,4.50
2019-03-23T02:28:58.381Z,4.70
2019-03-23T02:31:30.133Z,4.80
2019-03-23T02:34:01.794Z,4.90
2019-03-23T02:36:33.556Z,5.10
2019-03-23T02:39:07.700Z,5.10
2019-03-23T02:41:39.444Z,5.20
2019-03-23T02:44:10.979Z,5.20
2019-03-23T02:46:42.650Z,5.30
2019-03-23T02:49:14.932Z,5.30
2019-03-23T02:51:46.880Z,5.30
2019-03-23T02:54:18.446Z,5.40
2019-03-23T02:56:50.116Z,5.40
2019-03-23T02:59:21.638Z,5.50
2019-03-23T03:01:53.336Z,5.50
2019-03-23T03:04:25.141Z,5.60
2019-03-23T03:06:56.842Z,5.60
2019-03-23T03:09:28.461Z,5.60
2019-03-23T03:12:00.178Z,5.60
2019-03-23T03:14:31.845Z,5.70
2019-03-23T03:17:04.166Z,5.80
2019-03-23T03:19:36.558Z,5.90
2019-03-23T03:22:08.821Z,5.90
2019-03-23T03:24:40.929Z,6.00
2019-03-23T03:27:13.276Z,6.10
2019-03-23T03:29:45.272Z,6.20
2019-03-23T03:32:17.445Z,6.30
2019-03-23T03:34:49.000Z,6.40
2019-03-23T03:37:20.658Z,6.40
2019-03-23T03:39:52.450Z,6.50
2019-03-23T03:42:24.643Z,6.60
2019-03-23T03:44:56.491Z,6.70
2019-03-23T03:47:28.015Z,6.90
2019-03-23T03:49:59.491Z,7.10
2019-03-23T03:52:31.034Z,7.30
2019-03-23T03:55:02.583Z,7.40
2019-03-23T03:57:34.323Z,7.50
2019-03-23T04:00:06.659Z,7.70
2019-03-23T04:02:38.605Z,7.80
2019-03-23T04:05:10.362Z,7.90
2019-03-23T04:07:42.206Z,8.00
2019-03-23T04:10:14.060Z,8.10
2019-03-23T04:12:45.691Z,8.10
2019-03-23T04:15:17.475Z,8.20
2019-03-23T04:17:49.722Z,8.30
2019-03-23T04:20:22.627Z,8.30
2019-03-23T04:22:54.204Z,8.30
2019-03-23T04:25:25.917Z,8.30
2019-03-23T04:27:58.604Z,8.30
2019-03-23T04:30:30.246Z,8.40
2019-03-23T04:33:02.452Z,8.40
2019-03-23T04:35:34.014Z,8.30
2019-03-23T04:38:05.878Z,8.30
2019-03-23T04:40:38.208Z,8.30
2019-03-23T04:43:09.766Z,8.30
2019-03-23T04:45:42.505Z,8.30
2019-03-23T04:48:15.244Z,8.30
2019-03-23T04:50:46.725Z,8.20
2019-03-23T04:53:18.279Z,8.20
2019-03-23T04:55:49.801Z,8.20
2019-03-23T04:58:21.271Z,8.20
2019-03-23T05:00:55.797Z,8.10
2019-03-23T05:03:27.383Z,8.10
2019-03-23T05:05:58.916Z,8.00
2019-03-23T05:08:33.654Z,8.00
2019-03-23T05:11:03.558Z,8.00
2019-03-23T05:13:35.187Z,7.90
2019-03-23T05:16:07.259Z,7.90
2019-03-23T05:18:39.562Z,7.90
2019-03-23T05:21:11.298Z,7.90
2019-03-23T05:23:45.728Z,8.00
2019-03-23T05:26:16.449Z,8.00
2019-03-23T05:28:48.145Z,8.00
2019-03-23T05:31:19.806Z,8.00
2019-03-23T05:33:51.484Z,8.00
2019-03-23T05:36:23.033Z,8.10
2019-03-23T05:38:54.650Z,8.10
2019-03-23T05:41:26.100Z,8.10
2019-03-23T05:43:58.146Z,8.10
2019-03-23T05:46:30.227Z,8.10
2019-03-23T05:49:02.312Z,8.10
2019-03-23T05:51:33.989Z,8.10
2019-03-23T05:54:05.755Z,8.20
2019-03-23T05:56:37.853Z,8.20
2019-03-23T05:59:09.835Z,8.20
2019-03-23T06:01:41.368Z,8.20
2019-03-23T06:04:13.081Z,8.30
2019-03-23T06:06:44.626Z,8.40
2019-03-23T06:09:16.875Z,8.40
2019-03-23T06:11:48.504Z,8.40
2019-03-23T06:14:20.146Z,8.50
2019-03-23T06:16:51.955Z,8.60
2019-03-23T06:19:24.149Z,8.70
2019-03-23T06:21:56.360Z,8.70
2019-03-23T06:24:28.622Z,8.80
2019-03-23T06:27:00.479Z,8.90
2019-03-23T06:29:32.662Z,8.90
2019-03-23T06:32:04.489Z,9.00
2019-03-23T06:34:36.191Z,9.00
2019-03-23T06:37:07.901Z,9.10
2019-03-23T06:39:39.912Z,9.20
2019-03-23T06:42:11.972Z,9.20
2019-03-23T06:44:43.788Z,9.30
2019-03-23T06:47:15.849Z,9.40
2019-03-23T06:49:47.474Z,9.50
2019-03-23T06:52:19.445Z,9.60
2019-03-23T06:54:51.479Z,9.60
2019-03-23T06:57:23.792Z,9.70
2019-03-23T06:59:55.401Z,9.80
2019-03-23T07:02:27.463Z,9.90
2019-03-23T07:04:59.112Z,10.00
2019-03-23T07:07:31.322Z,10.10
2019-03-23T07:10:03.338Z,10.10
2019-03-23T07:12:34.992Z,10.20
2019-03-23T07:15:07.842Z,10.30
2019-03-23T07:17:39.482Z,10.40
2019-03-23T07:20:12.255Z,10.60
2019-03-23T07:22:44.080Z,10.70
2019-03-23T07:25:15.899Z,10.80
2019-03-23T07:27:47.383Z,10.90
2019-03-23T07:30:19.289Z,11.10
2019-03-23T07:32:50.913Z,11.30
2019-03-23T07:35:23.687Z,11.50
2019-03-23T07:37:55.155Z,11.60
2019-03-23T07:40:26.740Z,11.70
2019-03-23T07:42:58.255Z,11.70
2019-03-23T07:45:30.042Z,11.70
2019-03-23T07:48:01.581Z,11.80
2019-03-23T07:50:33.407Z,11.80
2019-03-23T07:53:05.111Z,11.70
2019-03-23T07:55:36.656Z,11.80
2019-03-23T07:58:08.178Z,12.00
2019-03-23T08:00:41.057Z,12.10
2019-03-23T08:03:13.426Z,12.20
2019-03-23T08:05:45.770Z,12.30
2019-03-23T08:08:17.419Z,12.50
2019-03-23T08:10:50.431Z,12.60
2019-03-23T08:13:22.865Z,12.60
2019-03-23T08:15:54.731Z,12.70
2019-03-23T08:18:26.732Z,12.90
2019-03-23T08:20:59.543Z,12.90
2019-03-23T08:23:31.895Z,12.90
2019-03-23T08:26:04.311Z,13.00
2019-03-23T08:28:36.553Z,12.90
2019-03-23T08:31:12.130Z,13.00
2019-03-23T08:33:44.777Z,13.10
2019-03-23T08:36:17.411Z,13.20
2019-03-23T08:38:51.673Z,13.30
2019-03-23T08:41:23.573Z,13.40
2019-03-23T08:43:55.742Z,13.50
2019-03-23T08:46:27.892Z,13.60
2019-03-23T08:49:04.168Z,13.70
2019-03-23T08:51:36.511Z,13.70
2019-03-23T08:54:08.217Z,13.90
2019-03-23T08:56:40.411Z,14.00
2019-03-23T08:59:12.279Z,14.20
2019-03-23T09:01:43.972Z,14.30
2019-03-23T09:04:16.018Z,14.40
2019-03-23T09:06:47.746Z,14.50
2019-03-23T09:09:19.955Z,14.50
2019-03-23T09:11:52.260Z,14.70
2019-03-23T09:14:24.489Z,14.90
2019-03-23T09:16:56.272Z,15.10
2019-03-23T09:19:28.452Z,15.30
2019-03-23T09:22:00.318Z,15.50
2019-03-23T09:24:31.877Z,15.60
2019-03-23T09:27:04.065Z,15.80
2019-03-23T09:29:35.677Z,15.90
2019-03-23T09:32:07.656Z,16.00
2019-03-23T09:34:39.889Z,16.00
2019-03-23T09:37:11.488Z,16.10
2019-03-23T09:39:43.060Z,16.30
2019-03-23T09:42:15.446Z,16.40
2019-03-23T09:44:47.644Z,16.40
2019-03-23T09:47:21.507Z,16.60
2019-03-23T09:49:53.119Z,16.70
2019-03-23T09:52:25.075Z,16.90
2019-03-23T09:54:56.712Z,17.00
2019-03-23T09:57:28.302Z,17.20
2019-03-23T09:59:59.984Z,17.40
2019-03-23T10:02:32.733Z,17.50
2019-03-23T10:05:04.694Z,17.60
2019-03-23T10:07:36.318Z,17.60
2019-03-23T10:10:09.325Z,17.60
2019-03-23T10:12:40.899Z,17.70
2019-03-23T10:15:12.699Z,17.80
2019-03-23T10:17:44.389Z,18.00
2019-03-23T10:20:16.245Z,18.30
2019-03-23T10:22:48.078Z,18.40
2019-03-23T10:25:19.835Z,18.60
2019-03-23T10:27:51.348Z,18.80
2019-03-23T10:30:24.564Z,18.70
2019-03-23T10:32:56.225Z,18.90
2019-03-23T10:35:27.689Z,19.10
2019-03-23T10:37:59.396Z,19.20
2019-03-23T10:40:32.793Z,19.30
2019-03-23T10:43:04.344Z,19.30
2019-03-23T10:45:43.804Z,19.40
2019-03-23T10:48:12.140Z,19.40
2019-03-23T10:50:43.607Z,19.40
2019-03-23T10:53:22.859Z,19.60
2019-03-23T10:55:50.204Z,19.80
2019-03-23T10:58:21.992Z,20.00
2019-03-23T11:00:54.044Z,20.30
2019-03-23T11:03:26.286Z,20.40
2019-03-23T11:05:58.063Z,20.50
2019-03-23T11:08:29.775Z,20.40
2019-03-23T11:11:01.371Z,20.50
2019-03-23T11:13:33.483Z,20.40
2019-03-23T11:16:05.645Z,20.30
2019-03-23T11:18:37.873Z,20.20
2019-03-23T11:21:09.750Z,20.30
2019-03-23T11:23:41.318Z,20.40
2019-03-23T11:26:13.025Z,20.50
2019-03-23T11:28:45.046Z,20.50
2019-03-23T11:31:16.707Z,20.40
2019-03-23T11:33:48.356Z,20.20
2019-03-23T11:36:20.086Z,20.20
2019-03-23T11:38:52.354Z,20.60
2019-03-23T11:41:23.863Z,20.60
2019-03-23T11:43:56.044Z,20.40
2019-03-23T11:46:27.651Z,20.40
2019-03-23T11:48:59.294Z,20.60
2019-03-23T11:51:30.991Z,20.60
2019-03-23T11:54:03.175Z,20.60
2019-03-23T11:56:35.206Z,20.80
2019-03-23T11:59:08.062Z,20.90
2019-03-23T12:01:39.595Z,20.90
2019-03-23T12:04:11.433Z,21.10
2019-03-23T12:06:43.062Z,21.20
2019-03-23T12:09:14.859Z,21.20
2019-03-23T12:11:46.343Z,21.10
2019-03-23T12:14:18.464Z,21.20
2019-03-23T12:16:50.608Z,21.20
2019-03-23T12:19:22.283Z,21.20
2019-03-23T12:21:53.945Z,21.30
2019-03-23T12:24:26.134Z,21.40
2019-03-23T12:26:58.356Z,21.70
2019-03-23T12:29:30.702Z,21.80
2019-03-23T12:32:03.988Z,21.50
2019-03-23T12:34:36.012Z,21.50
2019-03-23T12:37:08.310Z,21.50
2019-03-23T12:39:40.734Z,21.40
2019-03-23T12:42:12.829Z,21.10
2019-03-23T12:44:44.396Z,20.60
2019-03-23T12:47:16.538Z,20.30
2019-03-23T12:49:49.404Z,20.40
2019-03-23T12:52:22.293Z,20.60
2019-03-23T12:54:55.113Z,21.10
2019-03-23T12:57:26.673Z,21.30
2019-03-23T12:59:58.237Z,21.20
2019-03-23T13:02:29.964Z,21.50
2019-03-23T13:05:03.208Z,21.70
2019-03-23T13:07:34.851Z,21.80
2019-03-23T13:10:07.257Z,21.60
2019-03-23T13:12:38.813Z,21.20
2019-03-23T13:15:11.955Z,21.00
2019-03-23T13:17:44.813Z,21.40
2019-03-23T13:20:17.463Z,21.80
2019-03-23T13:22:49.564Z,21.50
2019-03-23T13:25:21.758Z,21.00
2019-03-23T13:27:53.874Z,20.50
2019-03-23T13:30:25.530Z,20.00
2019-03-23T13:32:57.029Z,19.70
2019-03-23T13:35:28.636Z,19.50
2019-03-23T13:38:00.763Z,19.30
2019-03-23T13:40:32.858Z,19.20
2019-03-23T13:43:04.559Z,19.00
2019-03-23T13:45:42.567Z,19.00
2019-03-23T13:48:09.963Z,18.90
2019-03-23T13:50:41.640Z,18.90
2019-03-23T13:53:13.876Z,18.90
2019-03-23T13:55:45.460Z,18.90
2019-03-23T13:58:17.043Z,19.00
2019-03-23T14:00:50.003Z,19.10
2019-03-23T14:03:22.160Z,19.00
2019-03-23T14:05:54.447Z,18.70
2019-03-23T14:08:26.197Z,18.60
2019-03-23T14:10:58.392Z,18.10
2019-03-23T14:13:29.864Z,17.60
2019-03-23T14:16:01.395Z,17.20
2019-03-23T14:18:32.899Z,16.70
2019-03-23T14:21:04.507Z,16.10
2019-03-23T14:23:35.983Z,15.70
2019-03-23T14:26:07.807Z,15.20
2019-03-23T14:28:39.378Z,14.90
2019-03-23T14:31:11.566Z,14.70
2019-03-23T14:33:43.098Z,14.40
2019-03-23T14:36:14.665Z,14.30
2019-03-23T14:38:46.289Z,14.20
2019-03-23T14:41:17.907Z,14.20
2019-03-23T14:43:49.868Z,14.40
2019-03-23T14:46:21.514Z,14.40
2019-03-23T14:48:53.034Z,14.50
2019-03-23T14:51:24.583Z,14.50
2019-03-23T14:53:56.067Z,14.30
2019-03-23T14:56:31.702Z,14.10
2019-03-23T14:59:00.734Z,13.90
2019-03-23T15:01:32.338Z,13.60
2019-03-23T15:04:04.961Z,13.50
2019-03-23T15:06:36.513Z,13.30
2019-03-23T15:09:09.257Z,13.10
2019-03-23T15:11:40.827Z,13.00
2019-03-23T15:14:12.474Z,12.80
2019-03-23T15:16:44.057Z,12.90
2019-03-23T15:19:15.947Z,13.30
2019-03-23T15:21:47.989Z,13.50
2019-03-23T15:24:20.286Z,13.40
2019-03-23T15:26:52.123Z,13.20
2019-03-23T15:29:23.676Z,13.10
2019-03-23T15:31:55.257Z,13.00
2019-03-23T15:34:26.844Z,13.10
2019-03-23T15:36:58.396Z,13.00
2019-03-23T15:39:29.840Z,13.00
2019-03-23T15:42:01.788Z,13.00
2019-03-23T15:44:33.268Z,12.90
2019-03-23T15:47:04.819Z,12.70
2019-03-23T15:49:36.255Z,12.40
2019-03-23T15:52:07.947Z,12.20
2019-03-23T15:54:39.415Z,11.80
2019-03-23T15:57:11.165Z,11.60
2019-03-23T15:59:42.977Z,11.40
2019-03-23T16:02:15.265Z,11.30
2019-03-23T16:04:47.534Z,11.20
2019-03-23T16:07:29.065Z,11.10
2019-03-23T16:09:52.305Z,11.10
2019-03-23T16:12:34.235Z,11.00
2019-03-23T16:14:57.576Z,11.00
2019-03-23T16:17:29.788Z,10.90
2019-03-23T16:20:01.347Z,10.80
2019-03-23T16:22:32.822Z,10.60
2019-03-23T16:25:04.613Z,10.50
2019-03-23T16:27:36.200Z,10.40
2019-03-23T16:30:08.975Z,10.30
2019-03-23T16:32:40.707Z,10.30
2019-03-23T16:35:13.823Z,10.20
2019-03-23T16:37:45.393Z,10.30
2019-03-23T16:40:17.054Z,10.20
2019-03-23T16:42:48.798Z,10.10
2019-03-23T16:45:21.563Z,10.10
2019-03-23T16:47:54.368Z,10.00
2019-03-23T16:50:26.140Z,10.00
2019-03-23T16:52:58.432Z,9.80
2019-03-23T16:55:29.962Z,9.70
2019-03-23T16:58:02.877Z,9.60
2019-03-23T17:00:37.373Z,9.50
2019-03-23T17:03:09.528Z,9.50
2019-03-23T17:05:41.583Z,9.50
2019-03-23T17:08:16.025Z,9.40
2019-03-23T17:10:48.704Z,9.40
2019-03-23T17:13:21.353Z,9.30
2019-03-23T17:15:54.453Z,9.20
2019-03-23T17:18:26.807Z,9.20
2019-03-23T17:20:58.359Z,9.10
2019-03-23T17:23:32.842Z,9.10
2019-03-23T17:26:05.822Z,9.10
2019-03-23T17:28:38.353Z,9.10
2019-03-23T17:31:11.996Z,9.00
2019-03-23T17:33:44.494Z,8.80
2019-03-23T17:36:17.087Z,8.70
2019-03-23T17:38:48.895Z,8.60
2019-03-23T17:41:20.348Z,8.50
2019-03-23T17:43:52.496Z,8.50
2019-03-23T17:46:24.624Z,8.50
2019-03-23T17:48:57.609Z,8.40
2019-03-23T17:51:29.108Z,8.40
2019-03-23T17:54:00.666Z,8.40
2019-03-23T17:56:32.174Z,8.40
2019-03-23T17:59:05.154Z,8.40
2019-03-23T18:01:36.841Z,8.40
2019-03-23T18:04:09.115Z,8.20
2019-03-23T18:06:41.359Z,8.20
2019-03-23T18:09:13.999Z,8.10
2019-03-23T18:11:46.841Z,8.00
2019-03-23T18:14:19.543Z,8.00
2019-03-23T18:16:51.720Z,7.90
2019-03-23T18:19:23.550Z,7.90
2019-03-23T18:21:55.117Z,7.80
2019-03-23T18:24:27.048Z,7.80
2019-03-23T18:26:58.905Z,7.80
2019-03-23T18:29:30.615Z,7.70
2019-03-23T18:32:02.359Z,7.70
2019-03-23T18:34:33.943Z,7.70
2019-03-23T18:37:05.574Z,7.70
2019-03-23T18:39:37.820Z,7.70
2019-03-23T18:42:09.408Z,7.70
2019-03-23T18:44:42.247Z,7.70
2019-03-23T18:47:13.725Z,7.70
2019-03-23T18:49:45.471Z,7.70
2019-03-23T18:52:17.345Z,7.70
2019-03-23T18:54:49.014Z,7.70
2019-03-23T18:57:20.658Z,7.70
2019-03-23T18:59:52.247Z,7.70
2019-03-23T19:02:24.355Z,7.70
2019-03-23T19:04:56.045Z,7.70
2019-03-23T19:07:28.618Z,7.70
2019-03-23T19:10:00.336Z,7.70
2019-03-23T19:12:33.117Z,7.70
2019-03-23T19:15:05.489Z,7.80
2019-03-23T19:17:37.092Z,7.80
2019-03-23T19:20:11.208Z,7.80
2019-03-23T19:22:42.908Z,7.80
2019-03-23T19:25:18.177Z,7.80
2019-03-23T19:27:49.240Z,7.80
2019-03-23T19:30:21.359Z,7.90
2019-03-23T19:32:53.011Z,7.80
2019-03-23T19:35:24.778Z,7.80
2019-03-23T19:37:56.979Z,7.70
2019-03-23T19:40:29.109Z,7.70
2019-03-23T19:43:01.445Z,7.70
2019-03-23T19:45:33.734Z,7.60
2019-03-23T19:48:05.699Z,7.60
2019-03-23T19:50:37.380Z,7.60
2019-03-23T19:53:08.992Z,7.60
2019-03-23T19:55:40.650Z,7.50
2019-03-23T19:58:12.438Z,7.50
2019-03-23T20:00:44.356Z,7.50
2019-03-23T20:03:16.146Z,7.50
2019-03-23T20:05:50.088Z,7.50
2019-03-23T20:08:21.864Z,7.50
2019-03-23T20:11:07.253Z,7.40
2019-03-23T20:13:44.032Z,7.40
2019-03-23T20:16:15.828Z,7.40
2019-03-23T20:18:47.474Z,7.30
2019-03-23T20:21:18.967Z,7.30
2019-03-23T20:23:51.373Z,7.30
2019-03-23T20:26:23.083Z,7.30
2019-03-23T20:28:54.798Z,7.20
2019-03-23T20:31:26.828Z,7.20
2019-03-23T20:33:58.299Z,7.20
2019-03-23T20:36:29.912Z,7.20
2019-03-23T20:39:01.475Z,7.20
2019-03-23T20:41:35.265Z,7.20
2019-03-23T20:44:09.740Z,7.20
2019-03-23T20:46:40.460Z,7.20
2019-03-23T20:49:12.372Z,7.20
2019-03-23T20:51:44.732Z,7.30
2019-03-23T20:54:16.882Z,7.30
2019-03-23T20:56:49.140Z,7.30
2019-03-23T20:59:20.618Z,7.20
2019-03-23T21:01:52.469Z,7.20
2019-03-23T21:04:24.081Z,7.20
2019-03-23T21:06:58.360Z,7.20
2019-03-23T21:09:32.263Z,7.20
2019-03-23T21:12:05.800Z,7.10
2019-03-23T21:14:40.349Z,7.10
2019-03-23T21:17:13.954Z,7.10
2019-03-23T21:19:50.303Z,7.10
2019-03-23T21:22:21.822Z,7.10
2019-03-23T21:24:55.141Z,7.10
2019-03-23T21:27:26.819Z,7.10
2019-03-23T21:29:59.077Z,7.00
2019-03-23T21:32:31.375Z,7.00
2019-03-23T21:35:03.141Z,7.00
2019-03-23T21:37:34.747Z,6.90
2019-03-23T21:40:06.736Z,6.90
2019-03-23T21:42:38.252Z,6.90
2019-03-23T21:45:10.036Z,6.80
2019-03-23T21:47:41.722Z,6.80
2019-03-23T21:50:13.444Z,6.80
2019-03-23T21:52:45.233Z,6.80
2019-03-23T21:55:16.827Z,6.70
2019-03-23T21:57:49.449Z,6.70
2019-03-23T22:00:33.048Z,6.70
2019-03-23T22:03:04.978Z,6.70
2019-03-23T22:05:36.500Z,6.70
2019-03-23T22:08:08.153Z,6.60
2019-03-23T22:10:40.736Z,6.60
2019-03-23T22:13:12.357Z,6.60
2019-03-23T22:15:46.431Z,6.50
2019-03-23T22:18:17.986Z,6.50
2019-03-23T22:20:52.977Z,6.40
2019-03-23T22:23:25.053Z,6.40
2019-03-23T22:25:57.385Z,6.40
2019-03-23T22:28:30.005Z,6.40
2019-03-23T22:31:02.511Z,6.40
2019-03-23T22:33:34.114Z,6.40
2019-03-23T22:36:07.628Z,6.30
2019-03-23T22:38:41.142Z,6.30
2019-03-23T22:41:13.284Z,6.30
2019-03-23T22:43:44.754Z,6.30
2019-03-23T22:46:17.615Z,6.30
2019-03-23T22:48:49.509Z,6.30
2019-03-23T22:51:21.106Z,6.30
2019-03-23T22:53:52.704Z,6.30
2019-03-23T22:56:25.210Z,6.30
2019-03-23T22:58:57.522Z,6.30
2019-03-23T23:01:30.463Z,6.30
2019-03-23T23:04:02.020Z,6.30
2019-03-23T23:06:33.557Z,6.30
2019-03-23T23:09:08.761Z,6.20
2019-03-23T23:11:40.489Z,6.20
2019-03-23T23:14:13.724Z,6.20
2019-03-23T23:16:45.164Z,6.10
2019-03-23T23:19:16.759Z,6.10
2019-03-23T23:21:48.186Z,6.10
2019-03-23T23:24:19.662Z,6.10
2019-03-23T23:26:51.231Z,6.00
2019-03-23T23:29:22.975Z,6.00
2019-03-23T23:31:55.726Z,6.00
2019-03-23T23:34:27.293Z,5.90
2019-03-23T23:36:58.834Z,5.90
2019-03-23T23:39:30.436Z,5.90
2019-03-23T23:42:01.996Z,5.80
2019-03-23T23:44:33.574Z,5.80
2019-03-23T23:47:05.093Z,5.80
2019-03-23T23:49:36.636Z,5.80
2019-03-23T23:52:08.214Z,5.70
2019-03-23T23:54:40.821Z,5.70
2019-03-23T23:57:12.407Z,5.70
2019-03-23T23:59:43.925Z,5.70
